sensor_id;sensor_type;location;lat;lon;timestamp;temperature;humidity
13123;DHT22;6627;50.920;12.050;2022-07-29T00:01:03;17.80;92.70
13123;DHT22;6627;50.920;12.050;2022-07-29T00:03:30;17.50;92.60
13123;DHT22;6627;50.920;12.050;2022-07-29T00:05:58;17.50;99.90
13123;DHT22;6627;50.920;12.050;2022-07-29T00:08:25;17.40;99.90
13123;DHT22;6627;50.920;12.050;2022-07-29T00:10:52;17.60;99.90
13123;DHT22;6627;50.920;12.050;2022-07-29T00:13:19;17.80;99.90
13123;DHT22;6627;50.920;12.050;2022-07-29T00:15:46;17.90;99.90
13123;DHT22;6627;50.920;12.050;2022-07-29T00:18:17;17.70;99.90
13123;DHT22;6627;50.920;12.050;2022-07-29T00:20:44;17.70;99.90
13123;DHT22;6627;50.920;12.050;2022-07-29T00:23:11;17.60;99.90
13123;DHT22;6627;50.920;12.050;2022-07-29T00:25:38;17.50;99.90
13123;DHT22;6627;50.920;12.050;2022-07-29T00:28:05;17.30;99.90
13123;DHT22;6627;50.920;12.050;2022-07-29T00:30:32;17.50;99.90
13123;DHT22;6627;50.920;12.050;2022-07-29T00:33:00;17.50;99.90
13123;DHT22;6627;50.920;12.050;2022-07-29T00:35:28;17.50;99.90
13123;DHT22;6627;50.920;12.050;2022-07-29T00:38:11;17.50;99.90
13123;DHT22;6627;50.920;12.050;2022-07-29T00:40:38;17.50;99.90
13123;DHT22;6627;50.920;12.050;2022-07-29T00:43:06;17.60;99.90
13123;DHT22;6627;50.920;12.050;2022-07-29T00:45:34;17.50;99.90
13123;DHT22;6627;50.920;12.050;2022-07-29T00:48:02;17.40;99.90
13123;DHT22;6627;50.920;12.050;2022-07-29T00:50:33;17.10;99.90
13123;DHT22;6627;50.920;12.050;2022-07-29T00:53:02;17.00;99.90
13123;DHT22;6627;50.920;12.050;2022-07-29T00:55:31;17.10;99.90
13123;DHT22;6627;50.920;12.050;2022-07-29T00:57:59;17.00;99.90
13123;DHT22;6627;50.920;12.050;2022-07-29T01:00:27;16.90;99.90
13123;DHT22;6627;50.920;12.050;2022-07-29T01:02:55;16.90;99.90
13123;DHT22;6627;50.920;12.050;2022-07-29T01:05:24;17.00;99.90
13123;DHT22;6627;50.920;12.050;2022-07-29T01:07:56;16.90;99.90
13123;DHT22;6627;50.920;12.050;2022-07-29T01:10:26;16.80;99.90
13123;DHT22;6627;50.920;12.050;2022-07-29T01:12:56;16.80;99.90
13123;DHT22;6627;50.920;12.050;2022-07-29T01:15:26;16.60;99.90
13123;DHT22;6627;50.920;12.050;2022-07-29T01:18:01;16.50;99.90
13123;DHT22;6627;50.920;12.050;2022-07-29T01:20:47;16.80;99.90
13123;DHT22;6627;50.920;12.050;2022-07-29T01:23:52;16.70;99.90
13123;DHT22;6627;50.920;12.050;2022-07-29T01:26:37;16.40;99.90
13123;DHT22;6627;50.920;12.050;2022-07-29T01:29:18;16.50;99.90
13123;DHT22;6627;50.920;12.050;2022-07-29T01:31:57;16.50;99.90
13123;DHT22;6627;50.920;12.050;2022-07-29T01:34:40;16.30;99.90
13123;DHT22;6627;50.920;12.050;2022-07-29T01:37:18;16.10;99.90
13123;DHT22;6627;50.920;12.050;2022-07-29T01:39:52;16.00;99.90
13123;DHT22;6627;50.920;12.050;2022-07-29T01:42:29;15.90;99.90
13123;DHT22;6627;50.920;12.050;2022-07-29T01:45:08;16.00;99.90
13123;DHT22;6627;50.920;12.050;2022-07-29T01:47:44;16.00;99.90
13123;DHT22;6627;50.920;12.050;2022-07-29T01:50:17;15.90;99.90
13123;DHT22;6627;50.920;12.050;2022-07-29T01:52:54;15.80;99.90
13123;DHT22;6627;50.920;12.050;2022-07-29T01:55:28;15.80;99.90
13123;DHT22;6627;50.920;12.050;2022-07-29T01:57:59;15.80;99.90
13123;DHT22;6627;50.920;12.050;2022-07-29T02:00:32;15.70;99.90
13123;DHT22;6627;50.920;12.050;2022-07-29T02:03:05;15.60;99.90
13123;DHT22;6627;50.920;12.050;2022-07-29T02:05:37;15.60;99.90
13123;DHT22;6627;50.920;12.050;2022-07-29T02:08:08;15.60;99.90
13123;DHT22;6627;50.920;12.050;2022-07-29T02:10:38;15.60;99.90
13123;DHT22;6627;50.920;12.050;2022-07-29T02:13:09;15.50;99.90
13123;DHT22;6627;50.920;12.050;2022-07-29T02:15:42;15.50;99.90
13123;DHT22;6627;50.920;12.050;2022-07-29T02:18:14;15.60;99.90
13123;DHT22;6627;50.920;12.050;2022-07-29T02:20:45;15.60;99.90
13123;DHT22;6627;50.920;12.050;2022-07-29T02:23:18;15.70;99.90
13123;DHT22;6627;50.920;12.050;2022-07-29T02:25:48;16.40;99.90
13123;DHT22;6627;50.920;12.050;2022-07-29T02:28:17;15.50;99.90
13123;DHT22;6627;50.920;12.050;2022-07-29T02:30:47;15.70;99.90
13123;DHT22;6627;50.920;12.050;2022-07-29T02:33:20;15.80;99.90
13123;DHT22;6627;50.920;12.050;2022-07-29T02:35:49;15.70;99.90
13123;DHT22;6627;50.920;12.050;2022-07-29T02:38:18;15.50;99.90
13123;DHT22;6627;50.920;12.050;2022-07-29T02:41:09;15.40;99.90
13123;DHT22;6627;50.920;12.050;2022-07-29T02:43:39;15.50;99.90
13123;DHT22;6627;50.920;12.050;2022-07-29T02:46:14;15.50;99.90
13123;DHT22;6627;50.920;12.050;2022-07-29T02:48:49;15.40;99.90
13123;DHT22;6627;50.920;12.050;2022-07-29T02:51:26;15.40;99.90
13123;DHT22;6627;50.920;12.050;2022-07-29T02:53:56;15.40;99.90
13123;DHT22;6627;50.920;12.050;2022-07-29T02:56:29;15.30;99.90
13123;DHT22;6627;50.920;12.050;2022-07-29T02:59:04;15.20;99.90
13123;DHT22;6627;50.920;12.050;2022-07-29T03:01:40;15.20;99.90
13123;DHT22;6627;50.920;12.050;2022-07-29T03:04:11;15.20;99.90
13123;DHT22;6627;50.920;12.050;2022-07-29T03:06:42;15.10;99.90
13123;DHT22;6627;50.920;12.050;2022-07-29T03:09:11;15.20;99.90
13123;DHT22;6627;50.920;12.050;2022-07-29T03:11:40;15.10;99.90
13123;DHT22;6627;50.920;12.050;2022-07-29T03:14:08;15.00;99.90
13123;DHT22;6627;50.920;12.050;2022-07-29T03:16:37;15.10;99.90
13123;DHT22;6627;50.920;12.050;2022-07-29T03:19:06;15.10;99.90
13123;DHT22;6627;50.920;12.050;2022-07-29T03:21:34;15.00;99.90
13123;DHT22;6627;50.920;12.050;2022-07-29T03:24:01;14.90;99.90
13123;DHT22;6627;50.920;12.050;2022-07-29T03:28:56;14.80;99.90
13123;DHT22;6627;50.920;12.050;2022-07-29T03:33:52;14.80;99.90
13123;DHT22;6627;50.920;12.050;2022-07-29T03:36:20;14.80;99.90
13123;DHT22;6627;50.920;12.050;2022-07-29T03:38:47;14.80;99.90
13123;DHT22;6627;50.920;12.050;2022-07-29T03:41:16;14.70;99.90
13123;DHT22;6627;50.920;12.050;2022-07-29T03:43:47;14.80;99.90
13123;DHT22;6627;50.920;12.050;2022-07-29T03:46:20;15.00;99.90
13123;DHT22;6627;50.920;12.050;2022-07-29T03:48:56;14.90;99.90
13123;DHT22;6627;50.920;12.050;2022-07-29T03:51:29;14.70;1.00
13123;DHT22;6627;50.920;12.050;2022-07-29T03:53:58;14.70;99.90
13123;DHT22;6627;50.920;12.050;2022-07-29T03:56:26;14.70;99.90
13123;DHT22;6627;50.920;12.050;2022-07-29T04:01:23;14.70;1.00
13123;DHT22;6627;50.920;12.050;2022-07-29T04:03:53;14.70;1.00
13123;DHT22;6627;50.920;12.050;2022-07-29T04:06:23;14.80;1.00
13123;DHT22;6627;50.920;12.050;2022-07-29T04:08:51;14.70;1.00
13123;DHT22;6627;50.920;12.050;2022-07-29T04:11:18;14.70;27.50
13123;DHT22;6627;50.920;12.050;2022-07-29T04:16:13;14.80;1.00
13123;DHT22;6627;50.920;12.050;2022-07-29T04:18:40;14.90;1.00
13123;DHT22;6627;50.920;12.050;2022-07-29T04:21:12;15.00;1.00
13123;DHT22;6627;50.920;12.050;2022-07-29T04:23:59;15.00;1.00
13123;DHT22;6627;50.920;12.050;2022-07-29T04:26:27;15.30;1.00
13123;DHT22;6627;50.920;12.050;2022-07-29T04:28:54;15.40;99.90
13123;DHT22;6627;50.920;12.050;2022-07-29T04:31:22;15.60;1.00
13123;DHT22;6627;50.920;12.050;2022-07-29T04:38:46;15.70;1.00
13123;DHT22;6627;50.920;12.050;2022-07-29T04:41:13;15.70;1.00
13123;DHT22;6627;50.920;12.050;2022-07-29T04:43:40;15.80;99.90
13123;DHT22;6627;50.920;12.050;2022-07-29T04:46:07;16.00;1.00
13123;DHT22;6627;50.920;12.050;2022-07-29T04:48:34;16.10;78.70
13123;DHT22;6627;50.920;12.050;2022-07-29T07:36:20;23.50;95.70
13123;DHT22;6627;50.920;12.050;2022-07-29T07:38:48;23.50;95.10
13123;DHT22;6627;50.920;12.050;2022-07-29T07:41:17;23.30;95.00
13123;DHT22;6627;50.920;12.050;2022-07-29T07:43:44;23.50;94.20
13123;DHT22;6627;50.920;12.050;2022-07-29T07:46:12;24.00;94.30
13123;DHT22;6627;50.920;12.050;2022-07-29T07:48:40;23.80;92.70
13123;DHT22;6627;50.920;12.050;2022-07-29T07:51:07;23.80;93.00
13123;DHT22;6627;50.920;12.050;2022-07-29T07:53:35;23.40;91.60
13123;DHT22;6627;50.920;12.050;2022-07-29T07:56:02;23.70;92.60
13123;DHT22;6627;50.920;12.050;2022-07-29T07:58:30;23.90;90.80
13123;DHT22;6627;50.920;12.050;2022-07-29T08:00:57;23.80;91.40
13123;DHT22;6627;50.920;12.050;2022-07-29T08:03:25;23.80;91.50
13123;DHT22;6627;50.920;12.050;2022-07-29T08:05:52;23.90;91.60
13123;DHT22;6627;50.920;12.050;2022-07-29T08:08:20;24.20;91.50
13123;DHT22;6627;50.920;12.050;2022-07-29T08:10:47;24.80;90.60
13123;DHT22;6627;50.920;12.050;2022-07-29T08:13:23;25.00;87.30
13123;DHT22;6627;50.920;12.050;2022-07-29T08:15:52;25.00;87.90
13123;DHT22;6627;50.920;12.050;2022-07-29T08:18:26;25.30;87.90
13123;DHT22;6627;50.920;12.050;2022-07-29T08:20:56;25.40;84.00
13123;DHT22;6627;50.920;12.050;2022-07-29T08:23:24;25.50;82.80
13123;DHT22;6627;50.920;12.050;2022-07-29T08:25:52;25.50;84.10
13123;DHT22;6627;50.920;12.050;2022-07-29T08:28:19;25.80;81.80
13123;DHT22;6627;50.920;12.050;2022-07-29T08:30:46;25.50;83.70
13123;DHT22;6627;50.920;12.050;2022-07-29T08:33:13;25.80;82.20
13123;DHT22;6627;50.920;12.050;2022-07-29T08:35:42;25.20;80.00
13123;DHT22;6627;50.920;12.050;2022-07-29T08:38:09;24.80;82.40
13123;DHT22;6627;50.920;12.050;2022-07-29T08:40:36;25.30;77.40
13123;DHT22;6627;50.920;12.050;2022-07-29T08:43:05;25.00;81.80
13123;DHT22;6627;50.920;12.050;2022-07-29T08:45:41;25.00;78.40
13123;DHT22;6627;50.920;12.050;2022-07-29T08:48:11;25.50;82.40
13123;DHT22;6627;50.920;12.050;2022-07-29T08:50:39;25.60;76.30
13123;DHT22;6627;50.920;12.050;2022-07-29T08:53:12;25.60;81.50
13123;DHT22;6627;50.920;12.050;2022-07-29T08:55:40;25.80;74.80
13123;DHT22;6627;50.920;12.050;2022-07-29T08:58:10;25.60;74.90
13123;DHT22;6627;50.920;12.050;2022-07-29T09:00:44;25.50;76.80
13123;DHT22;6627;50.920;12.050;2022-07-29T09:03:15;25.10;76.30
13123;DHT22;6627;50.920;12.050;2022-07-29T09:05:48;25.20;73.60
13123;DHT22;6627;50.920;12.050;2022-07-29T09:08:17;25.30;74.80
13123;DHT22;6627;50.920;12.050;2022-07-29T09:10:45;25.10;73.70
13123;DHT22;6627;50.920;12.050;2022-07-29T09:13:12;25.10;81.00
13123;DHT22;6627;50.920;12.050;2022-07-29T09:15:40;25.00;73.30
13123;DHT22;6627;50.920;12.050;2022-07-29T09:18:07;25.00;73.00
13123;DHT22;6627;50.920;12.050;2022-07-29T09:20:34;25.00;73.20
13123;DHT22;6627;50.920;12.050;2022-07-29T09:23:20;24.90;76.50
13123;DHT22;6627;50.920;12.050;2022-07-29T09:25:48;25.10;74.20
13123;DHT22;6627;50.920;12.050;2022-07-29T09:28:17;25.00;73.60
13123;DHT22;6627;50.920;12.050;2022-07-29T09:30:51;25.00;79.00
13123;DHT22;6627;50.920;12.050;2022-07-29T09:33:21;25.10;71.80
13123;DHT22;6627;50.920;12.050;2022-07-29T09:35:58;25.00;76.30
13123;DHT22;6627;50.920;12.050;2022-07-29T09:38:28;25.00;73.20
13123;DHT22;6627;50.920;12.050;2022-07-29T09:40:57;25.00;75.50
13123;DHT22;6627;50.920;12.050;2022-07-29T09:43:25;24.90;73.50
13123;DHT22;6627;50.920;12.050;2022-07-29T09:45:53;24.90;73.90
13123;DHT22;6627;50.920;12.050;2022-07-29T09:48:23;24.90;74.10
13123;DHT22;6627;50.920;12.050;2022-07-29T09:50:51;24.90;74.70
13123;DHT22;6627;50.920;12.050;2022-07-29T09:53:34;24.70;75.30
13123;DHT22;6627;50.920;12.050;2022-07-29T09:56:04;24.60;75.10
13123;DHT22;6627;50.920;12.050;2022-07-29T09:58:32;25.00;77.10
13123;DHT22;6627;50.920;12.050;2022-07-29T10:01:00;25.30;72.50
13123;DHT22;6627;50.920;12.050;2022-07-29T10:03:28;25.70;72.30
13123;DHT22;6627;50.920;12.050;2022-07-29T10:06:06;26.00;70.30
13123;DHT22;6627;50.920;12.050;2022-07-29T10:08:37;26.00;69.20
13123;DHT22;6627;50.920;12.050;2022-07-29T10:11:12;26.10;69.10
13123;DHT22;6627;50.920;12.050;2022-07-29T10:13:42;26.20;68.60
13123;DHT22;6627;50.920;12.050;2022-07-29T10:16:11;26.50;70.20
13123;DHT22;6627;50.920;12.050;2022-07-29T10:18:40;26.30;66.60
13123;DHT22;6627;50.920;12.050;2022-07-29T10:21:09;26.20;69.30
13123;DHT22;6627;50.920;12.050;2022-07-29T10:23:38;26.20;67.80
13123;DHT22;6627;50.920;12.050;2022-07-29T10:26:07;26.40;65.10
13123;DHT22;6627;50.920;12.050;2022-07-29T10:28:37;26.20;63.10
13123;DHT22;6627;50.920;12.050;2022-07-29T10:31:06;26.70;65.90
13123;DHT22;6627;50.920;12.050;2022-07-29T10:33:47;26.90;64.90
13123;DHT22;6627;50.920;12.050;2022-07-29T10:36:38;26.90;61.50
13123;DHT22;6627;50.920;12.050;2022-07-29T10:39:25;27.00;62.00
13123;DHT22;6627;50.920;12.050;2022-07-29T10:42:17;27.10;61.40
13123;DHT22;6627;50.920;12.050;2022-07-29T10:44:46;27.30;67.80
13123;DHT22;6627;50.920;12.050;2022-07-29T10:47:22;27.30;65.30
13123;DHT22;6627;50.920;12.050;2022-07-29T10:49:57;27.30;64.30
13123;DHT22;6627;50.920;12.050;2022-07-29T10:52:52;27.70;62.80
13123;DHT22;6627;50.920;12.050;2022-07-29T10:55:34;27.90;64.30
13123;DHT22;6627;50.920;12.050;2022-07-29T10:58:17;27.70;60.50
13123;DHT22;6627;50.920;12.050;2022-07-29T11:00:46;27.70;61.00
13123;DHT22;6627;50.920;12.050;2022-07-29T11:03:43;27.90;60.20
13123;DHT22;6627;50.920;12.050;2022-07-29T11:06:12;28.00;60.80
13123;DHT22;6627;50.920;12.050;2022-07-29T11:08:40;27.70;59.60
13123;DHT22;6627;50.920;12.050;2022-07-29T11:11:36;27.90;61.10
13123;DHT22;6627;50.920;12.050;2022-07-29T11:14:08;28.40;59.80
13123;DHT22;6627;50.920;12.050;2022-07-29T11:17:00;28.50;59.30
13123;DHT22;6627;50.920;12.050;2022-07-29T11:19:32;28.60;58.00
13123;DHT22;6627;50.920;12.050;2022-07-29T11:22:00;28.70;60.60
13123;DHT22;6627;50.920;12.050;2022-07-29T11:24:28;28.80;59.10
13123;DHT22;6627;50.920;12.050;2022-07-29T11:27:12;28.70;59.30
13123;DHT22;6627;50.920;12.050;2022-07-29T11:29:51;28.80;58.00
13123;DHT22;6627;50.920;12.050;2022-07-29T11:32:22;28.90;59.50
13123;DHT22;6627;50.920;12.050;2022-07-29T11:35:13;28.90;57.50
13123;DHT22;6627;50.920;12.050;2022-07-29T11:37:43;29.10;57.20
13123;DHT22;6627;50.920;12.050;2022-07-29T11:40:13;29.20;56.90
13123;DHT22;6627;50.920;12.050;2022-07-29T11:42:48;29.00;55.50
13123;DHT22;6627;50.920;12.050;2022-07-29T11:45:21;29.00;55.80
13123;DHT22;6627;50.920;12.050;2022-07-29T11:47:55;29.20;55.50
13123;DHT22;6627;50.920;12.050;2022-07-29T11:50:36;29.10;55.10
13123;DHT22;6627;50.920;12.050;2022-07-29T11:53:10;29.00;56.10
13123;DHT22;6627;50.920;12.050;2022-07-29T11:55:40;29.00;54.50
13123;DHT22;6627;50.920;12.050;2022-07-29T11:58:09;29.00;55.00
13123;DHT22;6627;50.920;12.050;2022-07-29T12:00:39;29.20;54.70
13123;DHT22;6627;50.920;12.050;2022-07-29T12:03:10;29.70;55.90
13123;DHT22;6627;50.920;12.050;2022-07-29T12:05:39;29.70;54.40
13123;DHT22;6627;50.920;12.050;2022-07-29T12:08:10;29.70;54.20
13123;DHT22;6627;50.920;12.050;2022-07-29T12:10:40;29.80;55.40
13123;DHT22;6627;50.920;12.050;2022-07-29T12:13:10;29.80;56.50
13123;DHT22;6627;50.920;12.050;2022-07-29T12:15:38;29.60;54.30
13123;DHT22;6627;50.920;12.050;2022-07-29T12:18:13;29.30;53.90
13123;DHT22;6627;50.920;12.050;2022-07-29T12:20:42;28.90;55.00
13123;DHT22;6627;50.920;12.050;2022-07-29T12:23:11;28.60;54.90
13123;DHT22;6627;50.920;12.050;2022-07-29T12:25:42;28.60;55.80
13123;DHT22;6627;50.920;12.050;2022-07-29T12:28:13;28.80;55.40
13123;DHT22;6627;50.920;12.050;2022-07-29T12:30:45;28.90;54.90
13123;DHT22;6627;50.920;12.050;2022-07-29T12:33:20;28.70;54.40
13123;DHT22;6627;50.920;12.050;2022-07-29T12:35:51;28.70;55.20
13123;DHT22;6627;50.920;12.050;2022-07-29T12:38:21;28.60;54.70
13123;DHT22;6627;50.920;12.050;2022-07-29T12:40:49;28.50;55.10
13123;DHT22;6627;50.920;12.050;2022-07-29T12:43:22;28.60;56.00
13123;DHT22;6627;50.920;12.050;2022-07-29T12:45:52;28.50;53.90
13123;DHT22;6627;50.920;12.050;2022-07-29T12:48:33;28.50;55.30
13123;DHT22;6627;50.920;12.050;2022-07-29T12:51:03;28.60;56.80
13123;DHT22;6627;50.920;12.050;2022-07-29T12:53:33;28.60;55.10
13123;DHT22;6627;50.920;12.050;2022-07-29T12:56:03;28.50;56.30
13123;DHT22;6627;50.920;12.050;2022-07-29T12:58:34;28.60;56.10
13123;DHT22;6627;50.920;12.050;2022-07-29T13:01:08;28.50;55.20
13123;DHT22;6627;50.920;12.050;2022-07-29T13:03:49;28.50;55.00
13123;DHT22;6627;50.920;12.050;2022-07-29T13:06:28;28.40;57.90
13123;DHT22;6627;50.920;12.050;2022-07-29T13:09:03;28.50;55.80
13123;DHT22;6627;50.920;12.050;2022-07-29T13:11:33;28.40;55.90
13123;DHT22;6627;50.920;12.050;2022-07-29T13:14:06;28.20;56.60
13123;DHT22;6627;50.920;12.050;2022-07-29T13:16:36;28.00;58.10
13123;DHT22;6627;50.920;12.050;2022-07-29T13:19:19;28.00;59.30
13123;DHT22;6627;50.920;12.050;2022-07-29T13:21:46;27.90;56.60
13123;DHT22;6627;50.920;12.050;2022-07-29T13:24:14;27.90;57.60
13123;DHT22;6627;50.920;12.050;2022-07-29T13:26:41;28.00;56.30
13123;DHT22;6627;50.920;12.050;2022-07-29T13:29:09;28.10;57.70
13123;DHT22;6627;50.920;12.050;2022-07-29T13:31:36;28.00;57.10
13123;DHT22;6627;50.920;12.050;2022-07-29T13:34:04;27.90;57.10
13123;DHT22;6627;50.920;12.050;2022-07-29T13:36:32;27.80;58.70
13123;DHT22;6627;50.920;12.050;2022-07-29T13:38:59;27.90;56.90
13123;DHT22;6627;50.920;12.050;2022-07-29T13:41:28;27.70;57.30
13123;DHT22;6627;50.920;12.050;2022-07-29T13:43:56;27.70;57.20
13123;DHT22;6627;50.920;12.050;2022-07-29T13:46:24;27.70;59.30
13123;DHT22;6627;50.920;12.050;2022-07-29T13:48:51;27.70;56.90
13123;DHT22;6627;50.920;12.050;2022-07-29T13:51:19;27.40;58.10
13123;DHT22;6627;50.920;12.050;2022-07-29T13:53:46;27.30;58.00
13123;DHT22;6627;50.920;12.050;2022-07-29T13:56:13;27.50;58.40
13123;DHT22;6627;50.920;12.050;2022-07-29T13:58:40;27.70;58.00
13123;DHT22;6627;50.920;12.050;2022-07-29T14:01:08;27.00;67.30
13123;DHT22;6627;50.920;12.050;2022-07-29T14:03:37;26.40;72.80
13123;DHT22;6627;50.920;12.050;2022-07-29T14:06:07;25.80;76.80
13123;DHT22;6627;50.920;12.050;2022-07-29T14:08:34;25.60;79.40
13123;DHT22;6627;50.920;12.050;2022-07-29T14:11:01;25.40;83.20
13123;DHT22;6627;50.920;12.050;2022-07-29T14:13:29;25.20;86.90
13123;DHT22;6627;50.920;12.050;2022-07-29T14:15:56;25.00;88.80
13123;DHT22;6627;50.920;12.050;2022-07-29T14:18:24;24.90;90.50
13123;DHT22;6627;50.920;12.050;2022-07-29T14:20:54;24.80;99.90
13123;DHT22;6627;50.920;12.050;2022-07-29T14:23:22;24.70;92.90
13123;DHT22;6627;50.920;12.050;2022-07-29T14:25:50;24.80;94.00
13123;DHT22;6627;50.920;12.050;2022-07-29T14:28:17;24.70;94.90
13123;DHT22;6627;50.920;12.050;2022-07-29T14:30:44;24.50;96.00
13123;DHT22;6627;50.920;12.050;2022-07-29T14:33:12;24.50;97.00
13123;DHT22;6627;50.920;12.050;2022-07-29T14:35:39;24.40;99.30
13123;DHT22;6627;50.920;12.050;2022-07-29T14:38:07;24.10;99.90
13123;DHT22;6627;50.920;12.050;2022-07-29T14:40:35;24.10;99.90
13123;DHT22;6627;50.920;12.050;2022-07-29T14:43:02;24.10;99.90
13123;DHT22;6627;50.920;12.050;2022-07-29T14:45:29;24.20;99.90
13123;DHT22;6627;50.920;12.050;2022-07-29T14:47:58;24.20;99.90
13123;DHT22;6627;50.920;12.050;2022-07-29T14:50:25;24.30;99.90
13123;DHT22;6627;50.920;12.050;2022-07-29T14:52:53;24.40;99.90
13123;DHT22;6627;50.920;12.050;2022-07-29T14:55:22;24.30;99.90
13123;DHT22;6627;50.920;12.050;2022-07-29T14:57:49;24.30;99.90
13123;DHT22;6627;50.920;12.050;2022-07-29T15:00:19;24.10;99.90
13123;DHT22;6627;50.920;12.050;2022-07-29T15:02:47;23.90;99.90
13123;DHT22;6627;50.920;12.050;2022-07-29T15:05:15;23.70;99.90
13123;DHT22;6627;50.920;12.050;2022-07-29T15:07:42;23.80;99.90
13123;DHT22;6627;50.920;12.050;2022-07-29T15:10:09;24.00;99.90
13123;DHT22;6627;50.920;12.050;2022-07-29T15:12:38;24.10;99.90
13123;DHT22;6627;50.920;12.050;2022-07-29T15:15:07;23.70;99.90
13123;DHT22;6627;50.920;12.050;2022-07-29T15:17:34;23.80;99.90
13123;DHT22;6627;50.920;12.050;2022-07-29T15:20:03;24.10;99.90
13123;DHT22;6627;50.920;12.050;2022-07-29T15:22:31;24.20;99.90
13123;DHT22;6627;50.920;12.050;2022-07-29T15:24:58;24.30;99.90
13123;DHT22;6627;50.920;12.050;2022-07-29T15:27:25;24.60;99.90
13123;DHT22;6627;50.920;12.050;2022-07-29T15:29:54;24.80;99.90
13123;DHT22;6627;50.920;12.050;2022-07-29T15:32:22;24.70;99.90
13123;DHT22;6627;50.920;12.050;2022-07-29T15:34:50;24.80;99.90
13123;DHT22;6627;50.920;12.050;2022-07-29T15:37:17;24.70;99.90
13123;DHT22;6627;50.920;12.050;2022-07-29T15:39:44;24.60;99.90
13123;DHT22;6627;50.920;12.050;2022-07-29T15:42:15;24.60;99.90
13123;DHT22;6627;50.920;12.050;2022-07-29T15:44:43;24.80;99.90
13123;DHT22;6627;50.920;12.050;2022-07-29T15:47:13;24.60;99.90
13123;DHT22;6627;50.920;12.050;2022-07-29T15:49:41;24.30;99.90
13123;DHT22;6627;50.920;12.050;2022-07-29T15:52:09;24.30;99.90
13123;DHT22;6627;50.920;12.050;2022-07-29T15:54:39;24.30;99.90
13123;DHT22;6627;50.920;12.050;2022-07-29T15:57:07;24.10;99.90
13123;DHT22;6627;50.920;12.050;2022-07-29T15:59:35;24.30;99.90
13123;DHT22;6627;50.920;12.050;2022-07-29T16:02:02;24.30;99.90
13123;DHT22;6627;50.920;12.050;2022-07-29T16:04:32;24.30;99.90
13123;DHT22;6627;50.920;12.050;2022-07-29T16:07:00;24.50;99.90
13123;DHT22;6627;50.920;12.050;2022-07-29T16:09:28;24.50;99.90
13123;DHT22;6627;50.920;12.050;2022-07-29T16:11:55;24.50;99.90
13123;DHT22;6627;50.920;12.050;2022-07-29T16:14:23;24.50;99.90
13123;DHT22;6627;50.920;12.050;2022-07-29T16:16:53;24.60;99.90
13123;DHT22;6627;50.920;12.050;2022-07-29T16:19:21;24.60;99.90
13123;DHT22;6627;50.920;12.050;2022-07-29T16:21:50;24.50;99.90
13123;DHT22;6627;50.920;12.050;2022-07-29T16:24:17;24.50;99.90
13123;DHT22;6627;50.920;12.050;2022-07-29T16:26:45;24.50;99.90
13123;DHT22;6627;50.920;12.050;2022-07-29T16:29:12;24.50;99.90
13123;DHT22;6627;50.920;12.050;2022-07-29T16:31:39;24.60;99.90
13123;DHT22;6627;50.920;12.050;2022-07-29T16:34:07;24.40;99.90
13123;DHT22;6627;50.920;12.050;2022-07-29T16:36:34;24.40;99.90
13123;DHT22;6627;50.920;12.050;2022-07-29T16:39:03;24.40;99.90
13123;DHT22;6627;50.920;12.050;2022-07-29T16:41:30;24.40;99.90
13123;DHT22;6627;50.920;12.050;2022-07-29T16:43:58;24.40;99.90
13123;DHT22;6627;50.920;12.050;2022-07-29T16:46:26;24.50;99.90
13123;DHT22;6627;50.920;12.050;2022-07-29T16:48:53;24.60;99.90
13123;DHT22;6627;50.920;12.050;2022-07-29T16:51:20;24.60;99.90
13123;DHT22;6627;50.920;12.050;2022-07-29T16:53:47;24.60;99.90
13123;DHT22;6627;50.920;12.050;2022-07-29T16:56:16;24.60;99.90
13123;DHT22;6627;50.920;12.050;2022-07-29T16:58:43;24.50;99.90
13123;DHT22;6627;50.920;12.050;2022-07-29T17:01:10;24.20;99.90
13123;DHT22;6627;50.920;12.050;2022-07-29T17:03:37;24.10;99.90
13123;DHT22;6627;50.920;12.050;2022-07-29T17:06:25;24.30;99.90
13123;DHT22;6627;50.920;12.050;2022-07-29T17:08:53;24.50;99.90
13123;DHT22;6627;50.920;12.050;2022-07-29T17:11:22;24.50;99.90
13123;DHT22;6627;50.920;12.050;2022-07-29T17:13:49;24.40;99.90
13123;DHT22;6627;50.920;12.050;2022-07-29T17:16:16;24.40;99.90
13123;DHT22;6627;50.920;12.050;2022-07-29T17:18:44;24.40;99.90
13123;DHT22;6627;50.920;12.050;2022-07-29T17:21:11;24.40;99.90
13123;DHT22;6627;50.920;12.050;2022-07-29T17:23:39;24.50;99.90
13123;DHT22;6627;50.920;12.050;2022-07-29T17:26:09;24.40;99.90
13123;DHT22;6627;50.920;12.050;2022-07-29T17:28:38;24.40;99.90
13123;DHT22;6627;50.920;12.050;2022-07-29T17:31:06;24.40;99.90
13123;DHT22;6627;50.920;12.050;2022-07-29T17:33:34;24.40;98.20
13123;DHT22;6627;50.920;12.050;2022-07-29T17:36:02;24.40;98.50
13123;DHT22;6627;50.920;12.050;2022-07-29T17:38:47;24.40;98.00
13123;DHT22;6627;50.920;12.050;2022-07-29T17:41:15;24.30;98.30
13123;DHT22;6627;50.920;12.050;2022-07-29T17:43:44;24.30;98.70
13123;DHT22;6627;50.920;12.050;2022-07-29T17:46:11;24.30;98.60
13123;DHT22;6627;50.920;12.050;2022-07-29T17:48:38;24.30;99.90
13123;DHT22;6627;50.920;12.050;2022-07-29T17:51:06;24.20;99.90
13123;DHT22;6627;50.920;12.050;2022-07-29T17:53:33;24.30;99.90
13123;DHT22;6627;50.920;12.050;2022-07-29T17:56:01;24.20;99.90
13123;DHT22;6627;50.920;12.050;2022-07-29T17:58:28;23.90;99.90
13123;DHT22;6627;50.920;12.050;2022-07-29T18:00:57;23.80;99.90
13123;DHT22;6627;50.920;12.050;2022-07-29T18:03:27;23.80;99.90
13123;DHT22;6627;50.920;12.050;2022-07-29T18:05:54;23.50;99.90
13123;DHT22;6627;50.920;12.050;2022-07-29T18:08:23;23.70;99.90
13123;DHT22;6627;50.920;12.050;2022-07-29T18:10:50;23.90;99.90
13123;DHT22;6627;50.920;12.050;2022-07-29T18:13:17;23.90;99.90
13123;DHT22;6627;50.920;12.050;2022-07-29T18:15:45;23.90;99.90
13123;DHT22;6627;50.920;12.050;2022-07-29T18:18:15;23.90;99.90
13123;DHT22;6627;50.920;12.050;2022-07-29T18:20:43;23.90;99.90
13123;DHT22;6627;50.920;12.050;2022-07-29T18:23:13;23.80;99.90
13123;DHT22;6627;50.920;12.050;2022-07-29T18:25:41;23.70;99.90
13123;DHT22;6627;50.920;12.050;2022-07-29T18:28:10;23.60;99.90
13123;DHT22;6627;50.920;12.050;2022-07-29T18:30:38;23.50;99.90
13123;DHT22;6627;50.920;12.050;2022-07-29T18:33:05;23.40;99.90
13123;DHT22;6627;50.920;12.050;2022-07-29T18:35:38;23.10;99.90
13123;DHT22;6627;50.920;12.050;2022-07-29T18:38:07;23.20;99.90
13123;DHT22;6627;50.920;12.050;2022-07-29T18:40:34;23.20;99.90
13123;DHT22;6627;50.920;12.050;2022-07-29T18:43:01;23.20;99.90
13123;DHT22;6627;50.920;12.050;2022-07-29T18:45:28;23.30;99.90
13123;DHT22;6627;50.920;12.050;2022-07-29T18:47:55;23.20;99.90
13123;DHT22;6627;50.920;12.050;2022-07-29T18:50:23;23.00;99.90
13123;DHT22;6627;50.920;12.050;2022-07-29T18:52:52;22.70;99.90